sensor_id;sensor_type;location;lat;lon;timestamp;P1;durP1;ratioP1;P2;durP2;ratioP2
76053;SDS011;64752;48.870;9.082;2023-04-22T00:02:04;9.48;;;6.55;;
76053;SDS011;64752;48.870;9.082;2023-04-22T00:04:30;10.85;;;5.80;;
76053;SDS011;64752;48.870;9.082;2023-04-22T00:06:55;12.20;;;5.32;;
76053;SDS011;64752;48.870;9.082;2023-04-22T00:09:21;7.47;;;5.50;;
76053;SDS011;64752;48.870;9.082;2023-04-22T00:11:46;7.55;;;5.07;;
76053;SDS011;64752;48.870;9.082;2023-04-22T00:14:11;7.67;;;5.50;;
76053;SDS011;64752;48.870;9.082;2023-04-22T00:16:36;9.13;;;4.97;;
76053;SDS011;64752;48.870;9.082;2023-04-22T00:19:03;8.90;;;5.45;;
76053;SDS011;64752;48.870;9.082;2023-04-22T00:21:28;8.77;;;5.72;;
76053;SDS011;64752;48.870;9.082;2023-04-22T00:23:53;10.95;;;5.60;;
76053;SDS011;64752;48.870;9.082;2023-04-22T00:26:18;8.77;;;5.80;;
76053;SDS011;64752;48.870;9.082;2023-04-22T00:28:44;8.00;;;5.03;;
76053;SDS011;64752;48.870;9.082;2023-04-22T00:31:09;9.27;;;5.00;;
76053;SDS011;64752;48.870;9.082;2023-04-22T00:33:34;11.43;;;5.72;;
76053;SDS011;64752;48.870;9.082;2023-04-22T00:36:00;7.85;;;4.70;;
76053;SDS011;64752;48.870;9.082;2023-04-22T00:38:25;8.50;;;5.97;;
76053;SDS011;64752;48.870;9.082;2023-04-22T00:40:50;6.93;;;5.03;;
76053;SDS011;64752;48.870;9.082;2023-04-22T00:43:16;10.07;;;5.00;;
76053;SDS011;64752;48.870;9.082;2023-04-22T00:45:42;7.20;;;5.32;;
76053;SDS011;64752;48.870;9.082;2023-04-22T00:48:07;7.65;;;5.05;;
76053;SDS011;64752;48.870;9.082;2023-04-22T00:50:33;10.30;;;5.50;;
76053;SDS011;64752;48.870;9.082;2023-04-22T00:52:58;7.35;;;5.07;;
76053;SDS011;64752;48.870;9.082;2023-04-22T00:55:23;8.02;;;4.95;;
76053;SDS011;64752;48.870;9.082;2023-04-22T00:57:49;6.90;;;4.93;;
76053;SDS011;64752;48.870;9.082;2023-04-22T01:00:15;8.25;;;4.78;;
76053;SDS011;64752;48.870;9.082;2023-04-22T01:02:40;8.85;;;5.88;;
76053;SDS011;64752;48.870;9.082;2023-04-22T01:05:06;8.00;;;5.38;;
76053;SDS011;64752;48.870;9.082;2023-04-22T01:07:33;7.45;;;5.13;;
76053;SDS011;64752;48.870;9.082;2023-04-22T01:09:58;9.18;;;5.30;;
76053;SDS011;64752;48.870;9.082;2023-04-22T01:12:24;8.35;;;5.25;;
76053;SDS011;64752;48.870;9.082;2023-04-22T01:14:49;8.98;;;5.32;;
76053;SDS011;64752;48.870;9.082;2023-04-22T01:17:15;9.35;;;5.55;;
76053;SDS011;64752;48.870;9.082;2023-04-22T01:19:40;10.48;;;5.93;;
76053;SDS011;64752;48.870;9.082;2023-04-22T01:22:07;8.38;;;6.30;;
76053;SDS011;64752;48.870;9.082;2023-04-22T01:24:32;10.50;;;5.68;;
76053;SDS011;64752;48.870;9.082;2023-04-22T01:26:57;9.55;;;5.57;;
76053;SDS011;64752;48.870;9.082;2023-04-22T01:29:23;10.27;;;5.57;;
76053;SDS011;64752;48.870;9.082;2023-04-22T01:31:48;9.07;;;6.13;;
76053;SDS011;64752;48.870;9.082;2023-04-22T01:34:13;8.13;;;5.55;;
76053;SDS011;64752;48.870;9.082;2023-04-22T01:36:38;8.02;;;5.50;;
76053;SDS011;64752;48.870;9.082;2023-04-22T01:39:04;7.35;;;5.15;;
76053;SDS011;64752;48.870;9.082;2023-04-22T01:41:29;6.88;;;4.85;;
76053;SDS011;64752;48.870;9.082;2023-04-22T01:43:54;7.63;;;5.10;;
76053;SDS011;64752;48.870;9.082;2023-04-22T01:46:21;10.07;;;4.85;;
76053;SDS011;64752;48.870;9.082;2023-04-22T01:48:46;8.63;;;4.93;;
76053;SDS011;64752;48.870;9.082;2023-04-22T01:51:15;6.20;;;4.68;;
76053;SDS011;64752;48.870;9.082;2023-04-22T01:53:41;7.47;;;4.87;;
76053;SDS011;64752;48.870;9.082;2023-04-22T01:56:06;6.57;;;4.68;;
76053;SDS011;64752;48.870;9.082;2023-04-22T01:58:32;12.07;;;4.10;;
76053;SDS011;64752;48.870;9.082;2023-04-22T02:00:57;7.45;;;4.72;;
76053;SDS011;64752;48.870;9.082;2023-04-22T02:03:24;6.88;;;4.20;;
76053;SDS011;64752;48.870;9.082;2023-04-22T02:05:49;6.30;;;4.37;;
76053;SDS011;64752;48.870;9.082;2023-04-22T02:08:14;16.90;;;3.90;;
76053;SDS011;64752;48.870;9.082;2023-04-22T02:10:39;7.30;;;4.13;;
76053;SDS011;64752;48.870;9.082;2023-04-22T02:13:04;6.03;;;4.07;;
76053;SDS011;64752;48.870;9.082;2023-04-22T02:15:30;7.72;;;4.32;;
76053;SDS011;64752;48.870;9.082;2023-04-22T02:17:55;9.45;;;4.28;;
76053;SDS011;64752;48.870;9.082;2023-04-22T02:20:20;6.72;;;4.57;;
76053;SDS011;64752;48.870;9.082;2023-04-22T02:22:45;8.52;;;4.63;;
76053;SDS011;64752;48.870;9.082;2023-04-22T02:25:11;6.57;;;4.40;;
76053;SDS011;64752;48.870;9.082;2023-04-22T02:27:38;7.53;;;4.32;;
76053;SDS011;64752;48.870;9.082;2023-04-22T02:30:03;6.15;;;4.32;;
76053;SDS011;64752;48.870;9.082;2023-04-22T02:32:28;7.15;;;4.47;;
76053;SDS011;64752;48.870;9.082;2023-04-22T02:34:54;7.15;;;4.45;;
76053;SDS011;64752;48.870;9.082;2023-04-22T02:37:20;7.03;;;3.92;;
76053;SDS011;64752;48.870;9.082;2023-04-22T02:39:50;6.78;;;4.18;;
76053;SDS011;64752;48.870;9.082;2023-04-22T02:42:15;7.43;;;4.20;;
76053;SDS011;64752;48.870;9.082;2023-04-22T02:44:40;7.70;;;4.53;;
76053;SDS011;64752;48.870;9.082;2023-04-22T02:47:06;6.82;;;4.10;;
76053;SDS011;64752;48.870;9.082;2023-04-22T02:49:31;5.10;;;4.30;;
76053;SDS011;64752;48.870;9.082;2023-04-22T02:51:56;7.80;;;4.60;;
76053;SDS011;64752;48.870;9.082;2023-04-22T02:54:21;7.95;;;4.47;;
76053;SDS011;64752;48.870;9.082;2023-04-22T02:56:46;6.95;;;4.25;;
76053;SDS011;64752;48.870;9.082;2023-04-22T02:59:12;7.65;;;4.68;;
76053;SDS011;64752;48.870;9.082;2023-04-22T03:01:37;8.50;;;4.97;;
76053;SDS011;64752;48.870;9.082;2023-04-22T03:04:02;7.82;;;4.40;;
76053;SDS011;64752;48.870;9.082;2023-04-22T03:06:27;7.60;;;4.85;;
76053;SDS011;64752;48.870;9.082;2023-04-22T03:08:52;7.13;;;4.40;;
76053;SDS011;64752;48.870;9.082;2023-04-22T03:11:18;6.40;;;4.80;;
76053;SDS011;64752;48.870;9.082;2023-04-22T03:13:43;9.07;;;4.95;;
76053;SDS011;64752;48.870;9.082;2023-04-22T03:16:08;7.28;;;5.05;;
76053;SDS011;64752;48.870;9.082;2023-04-22T03:18:33;11.57;;;6.50;;
76053;SDS011;64752;48.870;9.082;2023-04-22T03:21:00;11.38;;;6.55;;
76053;SDS011;64752;48.870;9.082;2023-04-22T03:23:25;9.73;;;6.35;;
76053;SDS011;64752;48.870;9.082;2023-04-22T03:25:51;10.50;;;7.90;;
76053;SDS011;64752;48.870;9.082;2023-04-22T03:28:16;13.45;;;8.45;;
76053;SDS011;64752;48.870;9.082;2023-04-22T03:30:41;10.02;;;7.65;;
76053;SDS011;64752;48.870;9.082;2023-04-22T03:33:06;11.32;;;8.23;;
76053;SDS011;64752;48.870;9.082;2023-04-22T03:35:32;12.23;;;8.57;;
76053;SDS011;64752;48.870;9.082;2023-04-22T03:37:57;13.60;;;8.13;;
76053;SDS011;64752;48.870;9.082;2023-04-22T03:40:22;10.73;;;7.83;;
76053;SDS011;64752;48.870;9.082;2023-04-22T03:42:47;15.77;;;7.78;;
76053;SDS011;64752;48.870;9.082;2023-04-22T03:45:13;10.93;;;7.65;;
76053;SDS011;64752;48.870;9.082;2023-04-22T03:47:38;12.45;;;7.25;;
76053;SDS011;64752;48.870;9.082;2023-04-22T03:50:03;10.07;;;7.00;;
76053;SDS011;64752;48.870;9.082;2023-04-22T03:52:28;10.30;;;7.00;;
76053;SDS011;64752;48.870;9.082;2023-04-22T03:54:54;11.20;;;6.75;;
76053;SDS011;64752;48.870;9.082;2023-04-22T03:57:19;11.38;;;7.25;;
76053;SDS011;64752;48.870;9.082;2023-04-22T03:59:44;10.25;;;7.47;;
76053;SDS011;64752;48.870;9.082;2023-04-22T04:02:10;9.57;;;7.22;;
76053;SDS011;64752;48.870;9.082;2023-04-22T04:04:35;9.55;;;6.70;;
76053;SDS011;64752;48.870;9.082;2023-04-22T04:07:00;11.02;;;7.85;;
76053;SDS011;64752;48.870;9.082;2023-04-22T04:09:26;10.18;;;6.97;;
76053;SDS011;64752;48.870;9.082;2023-04-22T04:11:51;8.03;;;6.93;;
76053;SDS011;64752;48.870;9.082;2023-04-22T04:14:16;10.82;;;7.32;;
76053;SDS011;64752;48.870;9.082;2023-04-22T04:16:41;10.45;;;7.72;;
76053;SDS011;64752;48.870;9.082;2023-04-22T04:19:07;11.75;;;8.15;;
76053;SDS011;64752;48.870;9.082;2023-04-22T04:21:32;12.10;;;8.00;;
76053;SDS011;64752;48.870;9.082;2023-04-22T04:23:58;11.48;;;8.25;;
76053;SDS011;64752;48.870;9.082;2023-04-22T04:26:23;10.75;;;8.48;;
76053;SDS011;64752;48.870;9.082;2023-04-22T04:28:49;13.98;;;8.50;;
76053;SDS011;64752;48.870;9.082;2023-04-22T04:31:14;9.48;;;7.47;;
76053;SDS011;64752;48.870;9.082;2023-04-22T04:33:39;10.15;;;8.80;;
76053;SDS011;64752;48.870;9.082;2023-04-22T04:36:05;13.55;;;8.90;;
76053;SDS011;64752;48.870;9.082;2023-04-22T04:38:30;12.68;;;9.20;;
76053;SDS011;64752;48.870;9.082;2023-04-22T04:40:55;11.45;;;7.95;;
76053;SDS011;64752;48.870;9.082;2023-04-22T04:43:20;10.77;;;8.10;;
76053;SDS011;64752;48.870;9.082;2023-04-22T04:45:50;10.73;;;7.65;;
76053;SDS011;64752;48.870;9.082;2023-04-22T04:48:15;10.43;;;7.82;;
76053;SDS011;64752;48.870;9.082;2023-04-22T04:50:41;9.32;;;7.07;;
76053;SDS011;64752;48.870;9.082;2023-04-22T04:53:07;12.50;;;8.27;;
76053;SDS011;64752;48.870;9.082;2023-04-22T04:55:32;10.32;;;7.45;;
76053;SDS011;64752;48.870;9.082;2023-04-22T04:57:57;10.30;;;6.57;;
76053;SDS011;64752;48.870;9.082;2023-04-22T05:00:23;8.55;;;6.55;;
76053;SDS011;64752;48.870;9.082;2023-04-22T05:02:48;12.68;;;7.57;;
76053;SDS011;64752;48.870;9.082;2023-04-22T05:05:13;12.75;;;7.93;;
76053;SDS011;64752;48.870;9.082;2023-04-22T05:07:38;7.97;;;5.75;;
76053;SDS011;64752;48.870;9.082;2023-04-22T05:10:04;7.65;;;5.35;;
76053;SDS011;64752;48.870;9.082;2023-04-22T05:12:29;11.10;;;6.10;;
76053;SDS011;64752;48.870;9.082;2023-04-22T05:14:55;9.10;;;5.32;;
76053;SDS011;64752;48.870;9.082;2023-04-22T05:17:20;8.05;;;4.63;;
76053;SDS011;64752;48.870;9.082;2023-04-22T05:19:45;6.78;;;4.90;;
76053;SDS011;64752;48.870;9.082;2023-04-22T05:22:10;9.00;;;5.43;;
76053;SDS011;64752;48.870;9.082;2023-04-22T05:24:36;7.45;;;5.47;;
76053;SDS011;64752;48.870;9.082;2023-04-22T05:27:01;10.32;;;7.18;;
76053;SDS011;64752;48.870;9.082;2023-04-22T05:29:26;10.35;;;5.97;;
76053;SDS011;64752;48.870;9.082;2023-04-22T05:31:52;9.57;;;5.20;;
76053;SDS011;64752;48.870;9.082;2023-04-22T05:34:17;7.50;;;5.95;;
76053;SDS011;64752;48.870;9.082;2023-04-22T05:36:42;8.35;;;5.72;;
76053;SDS011;64752;48.870;9.082;2023-04-22T05:39:07;7.55;;;5.57;;
76053;SDS011;64752;48.870;9.082;2023-04-22T05:41:33;6.75;;;5.65;;
76053;SDS011;64752;48.870;9.082;2023-04-22T05:43:58;10.25;;;5.97;;
76053;SDS011;64752;48.870;9.082;2023-04-22T05:46:23;6.65;;;5.28;;
76053;SDS011;64752;48.870;9.082;2023-04-22T05:48:48;6.90;;;4.70;;
76053;SDS011;64752;48.870;9.082;2023-04-22T05:51:14;8.25;;;4.30;;
76053;SDS011;64752;48.870;9.082;2023-04-22T05:53:39;6.18;;;4.65;;
76053;SDS011;64752;48.870;9.082;2023-04-22T05:56:04;7.40;;;4.70;;
76053;SDS011;64752;48.870;9.082;2023-04-22T05:58:30;6.18;;;4.30;;
76053;SDS011;64752;48.870;9.082;2023-04-22T06:00:55;7.05;;;4.82;;
76053;SDS011;64752;48.870;9.082;2023-04-22T06:03:20;8.80;;;4.40;;
76053;SDS011;64752;48.870;9.082;2023-04-22T06:05:46;6.65;;;4.72;;
76053;SDS011;64752;48.870;9.082;2023-04-22T06:08:11;7.33;;;5.20;;
76053;SDS011;64752;48.870;9.082;2023-04-22T06:10:36;6.97;;;5.00;;
76053;SDS011;64752;48.870;9.082;2023-04-22T06:13:02;7.60;;;4.63;;
76053;SDS011;64752;48.870;9.082;2023-04-22T06:15:27;7.77;;;5.40;;
76053;SDS011;64752;48.870;9.082;2023-04-22T06:17:52;7.07;;;4.70;;
76053;SDS011;64752;48.870;9.082;2023-04-22T06:20:18;7.40;;;5.13;;
76053;SDS011;64752;48.870;9.082;2023-04-22T06:22:43;8.00;;;5.37;;
76053;SDS011;64752;48.870;9.082;2023-04-22T06:25:08;9.37;;;4.87;;
76053;SDS011;64752;48.870;9.082;2023-04-22T06:27:34;7.70;;;5.10;;
76053;SDS011;64752;48.870;9.082;2023-04-22T06:30:00;7.90;;;5.00;;
76053;SDS011;64752;48.870;9.082;2023-04-22T06:32:25;7.33;;;4.57;;
76053;SDS011;64752;48.870;9.082;2023-04-22T06:34:50;6.37;;;4.53;;
76053;SDS011;64752;48.870;9.082;2023-04-22T06:37:15;7.53;;;5.03;;
76053;SDS011;64752;48.870;9.082;2023-04-22T06:39:40;7.73;;;5.20;;
76053;SDS011;64752;48.870;9.082;2023-04-22T06:42:06;8.60;;;5.30;;
76053;SDS011;64752;48.870;9.082;2023-04-22T06:44:31;10.60;;;5.43;;
76053;SDS011;64752;48.870;9.082;2023-04-22T06:46:56;8.77;;;5.50;;
76053;SDS011;64752;48.870;9.082;2023-04-22T06:49:22;10.27;;;5.43;;
76053;SDS011;64752;48.870;9.082;2023-04-22T06:51:47;10.93;;;5.53;;
76053;SDS011;64752;48.870;9.082;2023-04-22T06:54:12;9.10;;;5.10;;
76053;SDS011;64752;48.870;9.082;2023-04-22T06:56:37;7.03;;;5.60;;
76053;SDS011;64752;48.870;9.082;2023-04-22T06:59:02;6.37;;;5.37;;
76053;SDS011;64752;48.870;9.082;2023-04-22T07:01:28;8.73;;;4.83;;
76053;SDS011;64752;48.870;9.082;2023-04-22T07:03:53;6.47;;;4.87;;
76053;SDS011;64752;48.870;9.082;2023-04-22T07:06:18;9.67;;;5.00;;
76053;SDS011;64752;48.870;9.082;2023-04-22T07:08:43;8.63;;;5.17;;
76053;SDS011;64752;48.870;9.082;2023-04-22T07:11:09;6.37;;;4.50;;
76053;SDS011;64752;48.870;9.082;2023-04-22T07:13:34;7.33;;;4.47;;
76053;SDS011;64752;48.870;9.082;2023-04-22T07:16:00;7.47;;;4.97;;
76053;SDS011;64752;48.870;9.082;2023-04-22T07:18:25;6.97;;;4.80;;
76053;SDS011;64752;48.870;9.082;2023-04-22T07:20:50;8.30;;;4.37;;
76053;SDS011;64752;48.870;9.082;2023-04-22T07:23:15;6.67;;;4.03;;
76053;SDS011;64752;48.870;9.082;2023-04-22T07:25:40;7.93;;;4.10;;
76053;SDS011;64752;48.870;9.082;2023-04-22T07:28:06;6.43;;;4.03;;
76053;SDS011;64752;48.870;9.082;2023-04-22T07:30:31;7.80;;;4.40;;
76053;SDS011;64752;48.870;9.082;2023-04-22T07:32:56;4.73;;;3.87;;
76053;SDS011;64752;48.870;9.082;2023-04-22T07:35:21;8.00;;;5.27;;
76053;SDS011;64752;48.870;9.082;2023-04-22T07:37:47;8.70;;;5.20;;
76053;SDS011;64752;48.870;9.082;2023-04-22T07:40:12;6.23;;;4.43;;
76053;SDS011;64752;48.870;9.082;2023-04-22T07:42:38;5.83;;;3.97;;
76053;SDS011;64752;48.870;9.082;2023-04-22T07:45:04;4.87;;;3.67;;
76053;SDS011;64752;48.870;9.082;2023-04-22T07:47:29;6.57;;;4.30;;
76053;SDS011;64752;48.870;9.082;2023-04-22T07:49:54;7.67;;;4.20;;
76053;SDS011;64752;48.870;9.082;2023-04-22T07:52:20;5.73;;;4.30;;
76053;SDS011;64752;48.870;9.082;2023-04-22T07:54:45;6.60;;;4.97;;
76053;SDS011;64752;48.870;9.082;2023-04-22T07:57:10;7.87;;;4.63;;
76053;SDS011;64752;48.870;9.082;2023-04-22T07:59:35;10.50;;;4.80;;
76053;SDS011;64752;48.870;9.082;2023-04-22T08:02:01;7.50;;;4.80;;
76053;SDS011;64752;48.870;9.082;2023-04-22T08:04:26;7.57;;;5.00;;
76053;SDS011;64752;48.870;9.082;2023-04-22T08:06:51;8.10;;;4.43;;
76053;SDS011;64752;48.870;9.082;2023-04-22T08:09:16;5.67;;;3.53;;
76053;SDS011;64752;48.870;9.082;2023-04-22T08:11:41;5.93;;;3.83;;
76053;SDS011;64752;48.870;9.082;2023-04-22T08:14:07;5.80;;;3.70;;
76053;SDS011;64752;48.870;9.082;2023-04-22T08:16:32;5.10;;;3.43;;
76053;SDS011;64752;48.870;9.082;2023-04-22T08:18:57;4.67;;;3.20;;
76053;SDS011;64752;48.870;9.082;2023-04-22T08:21:23;6.23;;;3.40;;
76053;SDS011;64752;48.870;9.082;2023-04-22T08:23:48;7.83;;;3.27;;
76053;SDS011;64752;48.870;9.082;2023-04-22T08:26:13;6.67;;;3.37;;
76053;SDS011;64752;48.870;9.082;2023-04-22T08:28:40;5.97;;;3.30;;
76053;SDS011;64752;48.870;9.082;2023-04-22T08:31:06;4.68;;;3.28;;
76053;SDS011;64752;48.870;9.082;2023-04-22T08:33:33;3.10;;;2.55;;
76053;SDS011;64752;48.870;9.082;2023-04-22T08:35:58;5.63;;;3.43;;
76053;SDS011;64752;48.870;9.082;2023-04-22T08:38:23;9.67;;;3.70;;
76053;SDS011;64752;48.870;9.082;2023-04-22T08:40:49;4.23;;;2.93;;
76053;SDS011;64752;48.870;9.082;2023-04-22T08:43:14;4.23;;;2.90;;
76053;SDS011;64752;48.870;9.082;2023-04-22T08:45:39;4.37;;;3.00;;
76053;SDS011;64752;48.870;9.082;2023-04-22T08:48:06;3.83;;;2.63;;
76053;SDS011;64752;48.870;9.082;2023-04-22T08:50:32;3.00;;;2.15;;
76053;SDS011;64752;48.870;9.082;2023-04-22T08:52:58;4.37;;;2.30;;
76053;SDS011;64752;48.870;9.082;2023-04-22T08:55:23;2.80;;;2.00;;
76053;SDS011;64752;48.870;9.082;2023-04-22T08:57:49;4.82;;;1.55;;
76053;SDS011;64752;48.870;9.082;2023-04-22T09:00:14;2.17;;;1.70;;
76053;SDS011;64752;48.870;9.082;2023-04-22T09:02:40;2.25;;;1.77;;
76053;SDS011;64752;48.870;9.082;2023-04-22T09:05:08;2.58;;;1.80;;
76053;SDS011;64752;48.870;9.082;2023-04-22T09:07:34;2.20;;;1.57;;
76053;SDS011;64752;48.870;9.082;2023-04-22T09:10:00;2.28;;;1.55;;
76053;SDS011;64752;48.870;9.082;2023-04-22T09:12:25;2.63;;;1.60;;
76053;SDS011;64752;48.870;9.082;2023-04-22T09:14:51;1.60;;;1.35;;
76053;SDS011;64752;48.870;9.082;2023-04-22T09:17:17;2.17;;;1.17;;
76053;SDS011;64752;48.870;9.082;2023-04-22T09:19:45;2.97;;;1.70;;
76053;SDS011;64752;48.870;9.082;2023-04-22T09:22:20;2.63;;;1.70;;
76053;SDS011;64752;48.870;9.082;2023-04-22T09:24:49;2.77;;;1.67;;
76053;SDS011;64752;48.870;9.082;2023-04-22T09:27:17;3.22;;;1.80;;
76053;SDS011;64752;48.870;9.082;2023-04-22T09:30:03;2.28;;;1.40;;
76053;SDS011;64752;48.870;9.082;2023-04-22T09:32:31;2.60;;;1.95;;
76053;SDS011;64752;48.870;9.082;2023-04-22T09:34:56;2.80;;;2.20;;
76053;SDS011;64752;48.870;9.082;2023-04-22T09:37:25;5.28;;;2.70;;
76053;SDS011;64752;48.870;9.082;2023-04-22T09:39:50;4.25;;;2.90;;
76053;SDS011;64752;48.870;9.082;2023-04-22T09:42:16;8.80;;;3.78;;
76053;SDS011;64752;48.870;9.082;2023-04-22T09:44:43;5.18;;;3.00;;
76053;SDS011;64752;48.870;9.082;2023-04-22T09:47:08;4.68;;;2.78;;
76053;SDS011;64752;48.870;9.082;2023-04-22T09:49:36;5.05;;;3.00;;
76053;SDS011;64752;48.870;9.082;2023-04-22T09:52:02;4.78;;;3.33;;
76053;SDS011;64752;48.870;9.082;2023-04-22T09:54:28;4.45;;;2.63;;
76053;SDS011;64752;48.870;9.082;2023-04-22T10:01:44;4.38;;;2.45;;
76053;SDS011;64752;48.870;9.082;2023-04-22T10:04:10;5.93;;;3.00;;
76053;SDS011;64752;48.870;9.082;2023-04-22T10:06:36;8.10;;;2.88;;
76053;SDS011;64752;48.870;9.082;2023-04-22T10:09:02;7.00;;;2.60;;
76053;SDS011;64752;48.870;9.082;2023-04-22T10:11:29;4.32;;;2.55;;
76053;SDS011;64752;48.870;9.082;2023-04-22T10:13:54;3.03;;;2.00;;
76053;SDS011;64752;48.870;9.082;2023-04-22T10:16:20;6.83;;;2.30;;
76053;SDS011;64752;48.870;9.082;2023-04-22T10:18:46;2.70;;;2.03;;
76053;SDS011;64752;48.870;9.082;2023-04-22T10:21:12;3.17;;;1.90;;
76053;SDS011;64752;48.870;9.082;2023-04-22T10:26:03;2.15;;;1.88;;
76053;SDS011;64752;48.870;9.082;2023-04-22T10:30:54;3.38;;;1.80;;
76053;SDS011;64752;48.870;9.082;2023-04-22T10:38:32;2.13;;;1.52;;
76053;SDS011;64752;48.870;9.082;2023-04-22T10:40:58;4.53;;;1.52;;
76053;SDS011;64752;48.870;9.082;2023-04-22T10:43:39;2.17;;;1.55;;
76053;SDS011;64752;48.870;9.082;2023-04-22T10:46:04;5.72;;;1.98;;
76053;SDS011;64752;48.870;9.082;2023-04-22T10:50:54;2.80;;;1.67;;
76053;SDS011;64752;48.870;9.082;2023-04-22T10:55:52;3.35;;;1.73;;
76053;SDS011;64752;48.870;9.082;2023-04-22T10:58:20;3.88;;;1.70;;
76053;SDS011;64752;48.870;9.082;2023-04-22T11:00:46;2.10;;;1.00;;
76053;SDS011;64752;48.870;9.082;2023-04-22T11:03:16;5.25;;;1.40;;
76053;SDS011;64752;48.870;9.082;2023-04-22T11:08:11;2.87;;;1.40;;
76053;SDS011;64752;48.870;9.082;2023-04-22T11:13:06;2.35;;;1.20;;
76053;SDS011;64752;48.870;9.082;2023-04-22T11:15:31;2.67;;;1.15;;
76053;SDS011;64752;48.870;9.082;2023-04-22T11:17:58;2.45;;;1.23;;
76053;SDS011;64752;48.870;9.082;2023-04-22T11:20:24;1.52;;;1.10;;
76053;SDS011;64752;48.870;9.082;2023-04-22T11:22:50;3.73;;;1.30;;
76053;SDS011;64752;48.870;9.082;2023-04-22T11:27:41;5.10;;;1.30;;
76053;SDS011;64752;48.870;9.082;2023-04-22T11:30:08;4.55;;;1.30;;
76053;SDS011;64752;48.870;9.082;2023-04-22T11:32:35;1.83;;;1.52;;
76053;SDS011;64752;48.870;9.082;2023-04-22T11:35:05;2.22;;;1.40;;
76053;SDS011;64752;48.870;9.082;2023-04-22T11:37:31;2.30;;;1.50;;
76053;SDS011;64752;48.870;9.082;2023-04-22T11:40:03;3.50;;;1.48;;
76053;SDS011;64752;48.870;9.082;2023-04-22T11:42:28;3.10;;;1.20;;
76053;SDS011;64752;48.870;9.082;2023-04-22T11:44:54;3.13;;;1.27;;
76053;SDS011;64752;48.870;9.082;2023-04-22T11:47:19;1.70;;;1.13;;
76053;SDS011;64752;48.870;9.082;2023-04-22T11:49:56;1.77;;;1.30;;
76053;SDS011;64752;48.870;9.082;2023-04-22T11:52:23;3.28;;;1.20;;
76053;SDS011;64752;48.870;9.082;2023-04-22T11:54:48;2.10;;;1.27;;
76053;SDS011;64752;48.870;9.082;2023-04-22T11:57:13;2.67;;;1.27;;
76053;SDS011;64752;48.870;9.082;2023-04-22T11:59:40;2.25;;;1.15;;
76053;SDS011;64752;48.870;9.082;2023-04-22T12:02:06;5.78;;;1.42;;
76053;SDS011;64752;48.870;9.082;2023-04-22T12:04:36;2.55;;;1.48;;
76053;SDS011;64752;48.870;9.082;2023-04-22T12:07:02;2.28;;;1.10;;
76053;SDS011;64752;48.870;9.082;2023-04-22T12:09:27;4.78;;;1.52;;
76053;SDS011;64752;48.870;9.082;2023-04-22T12:11:53;6.38;;;1.42;;
76053;SDS011;64752;48.870;9.082;2023-04-22T12:14:18;4.50;;;1.70;;
76053;SDS011;64752;48.870;9.082;2023-04-22T12:16:43;2.13;;;1.20;;
76053;SDS011;64752;48.870;9.082;2023-04-22T12:19:09;2.87;;;1.60;;
76053;SDS011;64752;48.870;9.082;2023-04-22T12:21:34;7.03;;;1.87;;
76053;SDS011;64752;48.870;9.082;2023-04-22T12:24:00;2.90;;;1.40;;
76053;SDS011;64752;48.870;9.082;2023-04-22T12:26:29;3.03;;;1.63;;
76053;SDS011;64752;48.870;9.082;2023-04-22T12:28:55;2.23;;;1.33;;
76053;SDS011;64752;48.870;9.082;2023-04-22T12:31:21;4.80;;;1.98;;
76053;SDS011;64752;48.870;9.082;2023-04-22T12:33:46;2.13;;;1.30;;
76053;SDS011;64752;48.870;9.082;2023-04-22T12:36:12;5.07;;;1.60;;
76053;SDS011;64752;48.870;9.082;2023-04-22T12:38:37;4.23;;;1.77;;
76053;SDS011;64752;48.870;9.082;2023-04-22T12:41:03;3.60;;;1.60;;
76053;SDS011;64752;48.870;9.082;2023-04-22T12:43:29;3.40;;;1.65;;
76053;SDS011;64752;48.870;9.082;2023-04-22T12:45:56;6.57;;;1.50;;
76053;SDS011;64752;48.870;9.082;2023-04-22T12:48:22;4.20;;;1.30;;
76053;SDS011;64752;48.870;9.082;2023-04-22T12:50:47;3.77;;;1.80;;
76053;SDS011;64752;48.870;9.082;2023-04-22T12:53:12;3.53;;;1.60;;
76053;SDS011;64752;48.870;9.082;2023-04-22T12:55:37;3.23;;;2.03;;
76053;SDS011;64752;48.870;9.082;2023-04-22T12:58:02;4.40;;;1.50;;
76053;SDS011;64752;48.870;9.082;2023-04-22T13:00:28;3.17;;;1.67;;
76053;SDS011;64752;48.870;9.082;2023-04-22T13:02:53;2.80;;;1.80;;
76053;SDS011;64752;48.870;9.082;2023-04-22T13:05:19;5.23;;;2.50;;
76053;SDS011;64752;48.870;9.082;2023-04-22T13:07:44;4.40;;;2.17;;
76053;SDS011;64752;48.870;9.082;2023-04-22T13:10:11;7.13;;;2.15;;
76053;SDS011;64752;48.870;9.082;2023-04-22T13:12:36;4.95;;;1.85;;
76053;SDS011;64752;48.870;9.082;2023-04-22T13:15:02;2.73;;;1.60;;
76053;SDS011;64752;48.870;9.082;2023-04-22T13:17:27;5.30;;;1.77;;
76053;SDS011;64752;48.870;9.082;2023-04-22T13:19:53;5.43;;;2.40;;
76053;SDS011;64752;48.870;9.082;2023-04-22T13:22:18;5.40;;;1.83;;
76053;SDS011;64752;48.870;9.082;2023-04-22T13:24:43;3.40;;;1.80;;
76053;SDS011;64752;48.870;9.082;2023-04-22T13:27:09;5.00;;;1.53;;
76053;SDS011;64752;48.870;9.082;2023-04-22T13:29:35;3.93;;;2.03;;
76053;SDS011;64752;48.870;9.082;2023-04-22T13:32:00;2.83;;;1.43;;
76053;SDS011;64752;48.870;9.082;2023-04-22T13:34:26;2.78;;;1.65;;
76053;SDS011;64752;48.870;9.082;2023-04-22T13:36:51;4.20;;;1.57;;
76053;SDS011;64752;48.870;9.082;2023-04-22T13:39:16;3.93;;;1.70;;
76053;SDS011;64752;48.870;9.082;2023-04-22T13:41:42;5.53;;;1.40;;
76053;SDS011;64752;48.870;9.082;2023-04-22T13:44:09;4.05;;;1.83;;
76053;SDS011;64752;48.870;9.082;2023-04-22T13:46:35;4.60;;;1.70;;
76053;SDS011;64752;48.870;9.082;2023-04-22T13:49:00;1.97;;;1.40;;
76053;SDS011;64752;48.870;9.082;2023-04-22T13:51:25;2.93;;;1.80;;
76053;SDS011;64752;48.870;9.082;2023-04-22T13:53:50;5.00;;;2.13;;
76053;SDS011;64752;48.870;9.082;2023-04-22T13:56:15;3.03;;;1.43;;
76053;SDS011;64752;48.870;9.082;2023-04-22T13:58:41;2.53;;;1.57;;
76053;SDS011;64752;48.870;9.082;2023-04-22T14:01:07;5.72;;;1.83;;
76053;SDS011;64752;48.870;9.082;2023-04-22T14:03:32;4.80;;;2.20;;
76053;SDS011;64752;48.870;9.082;2023-04-22T14:05:58;3.10;;;1.40;;
76053;SDS011;64752;48.870;9.082;2023-04-22T14:08:25;5.25;;;1.58;;
76053;SDS011;64752;48.870;9.082;2023-04-22T14:10:50;3.70;;;1.80;;
76053;SDS011;64752;48.870;9.082;2023-04-22T14:13:15;3.40;;;1.60;;
76053;SDS011;64752;48.870;9.082;2023-04-22T14:15:41;2.63;;;1.60;;
76053;SDS011;64752;48.870;9.082;2023-04-22T14:18:06;4.23;;;1.63;;
76053;SDS011;64752;48.870;9.082;2023-04-22T14:20:31;3.23;;;1.47;;
76053;SDS011;64752;48.870;9.082;2023-04-22T14:22:56;3.07;;;1.60;;
76053;SDS011;64752;48.870;9.082;2023-04-22T14:25:22;3.03;;;1.40;;
76053;SDS011;64752;48.870;9.082;2023-04-22T14:27:47;3.47;;;1.40;;
76053;SDS011;64752;48.870;9.082;2023-04-22T14:30:13;3.57;;;1.67;;
76053;SDS011;64752;48.870;9.082;2023-04-22T14:32:38;4.73;;;1.90;;
76053;SDS011;64752;48.870;9.082;2023-04-22T14:35:03;2.83;;;1.60;;
76053;SDS011;64752;48.870;9.082;2023-04-22T14:37:29;3.87;;;1.30;;
76053;SDS011;64752;48.870;9.082;2023-04-22T14:39:55;4.85;;;3.20;;
76053;SDS011;64752;48.870;9.082;2023-04-22T14:42:21;6.33;;;3.00;;
76053;SDS011;64752;48.870;9.082;2023-04-22T14:44:46;4.53;;;1.90;;
76053;SDS011;64752;48.870;9.082;2023-04-22T14:47:12;4.73;;;1.77;;
76053;SDS011;64752;48.870;9.082;2023-04-22T14:49:37;3.07;;;1.50;;
76053;SDS011;64752;48.870;9.082;2023-04-22T14:52:02;2.10;;;1.37;;
76053;SDS011;64752;48.870;9.082;2023-04-22T14:54:27;3.60;;;1.73;;
76053;SDS011;64752;48.870;9.082;2023-04-22T14:56:53;3.40;;;1.50;;
76053;SDS011;64752;48.870;9.082;2023-04-22T14:59:20;6.15;;;1.50;;
76053;SDS011;64752;48.870;9.082;2023-04-22T15:01:45;3.30;;;1.80;;
76053;SDS011;64752;48.870;9.082;2023-04-22T15:04:10;2.57;;;1.63;;